createdAt,value
2018-04-26T00:01:20.258Z,10.05
2018-04-26T00:06:22.870Z,9.84
2018-04-26T00:08:50.847Z,9.76
2018-04-26T00:11:19.658Z,9.69
2018-04-26T00:13:47.778Z,9.64
2018-04-26T00:16:15.564Z,9.64
2018-04-26T00:18:43.388Z,9.66
2018-04-26T00:21:11.619Z,9.66
2018-04-26T00:23:39.514Z,9.64
2018-04-26T00:26:07.562Z,9.63
2018-04-26T00:28:35.684Z,9.61
2018-04-26T00:31:03.836Z,9.59
2018-04-26T00:33:31.779Z,9.58
2018-04-26T00:35:59.487Z,9.59
2018-04-26T00:38:28.616Z,9.57
2018-04-26T00:40:56.658Z,9.58
2018-04-26T00:43:24.689Z,9.60
2018-04-26T00:45:52.572Z,9.60
2018-04-26T00:48:20.570Z,9.63
2018-04-26T00:50:48.362Z,9.66
2018-04-26T00:53:16.362Z,9.68
2018-04-26T00:55:44.553Z,9.71
2018-04-26T00:58:12.453Z,9.73
2018-04-26T01:00:40.523Z,9.75
2018-04-26T01:03:08.305Z,9.81
2018-04-26T01:05:36.085Z,9.89
2018-04-26T01:08:04.552Z,9.97
2018-04-26T01:10:32.937Z,10.00
2018-04-26T01:13:01.671Z,10.06
2018-04-26T01:15:29.699Z,10.09
2018-04-26T01:17:57.590Z,10.12
2018-04-26T01:20:26.279Z,10.18
2018-04-26T01:22:54.451Z,10.20
2018-04-26T01:25:23.133Z,10.20
2018-04-26T01:27:51.015Z,10.19
2018-04-26T01:30:19.087Z,10.14
2018-04-26T01:32:47.370Z,10.11
2018-04-26T01:35:15.244Z,10.06
2018-04-26T01:37:49.248Z,10.03
2018-04-26T01:40:17.337Z,10.02
2018-04-26T01:42:45.110Z,10.03
2018-04-26T01:45:13.257Z,10.01
2018-04-26T01:47:41.170Z,9.99
2018-04-26T01:50:10.379Z,9.98
2018-04-26T01:52:40.602Z,9.93
2018-04-26T01:55:09.583Z,9.89
2018-04-26T01:57:37.714Z,9.86
2018-04-26T02:00:06.527Z,9.84
2018-04-26T02:02:34.416Z,9.82
2018-04-26T02:05:02.484Z,9.83
2018-04-26T02:07:30.360Z,9.86
2018-04-26T02:09:58.626Z,9.86
2018-04-26T02:12:26.499Z,9.89
2018-04-26T02:14:54.297Z,9.94
2018-04-26T02:17:22.350Z,9.97
2018-04-26T02:19:50.344Z,9.99
2018-04-26T02:22:18.295Z,9.98
2018-04-26T02:24:46.274Z,9.97
2018-04-26T02:27:14.143Z,9.95
2018-04-26T02:29:42.103Z,9.94
2018-04-26T02:32:10.062Z,9.91
2018-04-26T02:34:39.414Z,9.88
2018-04-26T02:37:08.098Z,9.86
2018-04-26T02:39:37.429Z,9.85
2018-04-26T02:42:05.561Z,9.85
2018-04-26T02:44:33.356Z,9.86
2018-04-26T02:47:01.620Z,9.88
2018-04-26T02:49:29.489Z,9.90
2018-04-26T02:51:57.463Z,9.93
2018-04-26T02:54:25.421Z,9.97
2018-04-26T02:56:53.332Z,9.98
2018-04-26T02:59:21.583Z,10.00
2018-04-26T03:01:49.484Z,10.02
2018-04-26T03:04:17.498Z,10.03
2018-04-26T03:06:45.363Z,10.00
2018-04-26T03:09:13.197Z,9.98
2018-04-26T03:11:41.444Z,9.96
2018-04-26T03:14:09.247Z,9.96
2018-04-26T03:16:37.180Z,9.94
2018-04-26T03:19:05.072Z,9.94
2018-04-26T03:21:32.841Z,9.93
2018-04-26T03:24:01.213Z,9.94
2018-04-26T03:26:30.069Z,9.93
2018-04-26T03:28:59.062Z,9.94
2018-04-26T03:31:26.907Z,9.93
2018-04-26T03:33:54.655Z,9.92
2018-04-26T03:36:23.533Z,9.92
2018-04-26T03:38:51.717Z,9.91
2018-04-26T03:41:19.608Z,9.92
2018-04-26T03:43:47.576Z,9.92
2018-04-26T03:46:16.076Z,9.94
2018-04-26T03:48:44.189Z,9.93
2018-04-26T03:51:12.119Z,9.95
2018-04-26T03:53:40.769Z,9.96
2018-04-26T03:56:08.732Z,9.98
2018-04-26T03:58:36.731Z,10.00
2018-04-26T04:01:17.493Z,10.03
2018-04-26T04:03:58.273Z,10.06
2018-04-26T04:06:26.232Z,10.08
2018-04-26T04:08:54.186Z,10.10
2018-04-26T04:11:22.276Z,10.13
2018-04-26T04:13:50.434Z,10.16
2018-04-26T04:16:18.336Z,10.18
2018-04-26T04:18:46.618Z,10.21
2018-04-26T04:21:14.413Z,10.22
2018-04-26T04:23:42.558Z,10.26
2018-04-26T04:26:10.404Z,10.27
2018-04-26T04:28:38.362Z,10.26
2018-04-26T04:31:06.472Z,10.29
2018-04-26T04:33:34.493Z,10.30
2018-04-26T04:36:02.533Z,10.31
2018-04-26T04:38:30.512Z,10.34
2018-04-26T04:40:58.486Z,10.35
2018-04-26T04:43:26.569Z,10.34
2018-04-26T04:45:54.438Z,10.35
2018-04-26T04:48:22.570Z,10.36
2018-04-26T04:50:50.593Z,10.39
2018-04-26T04:53:18.540Z,10.42
2018-04-26T04:55:46.845Z,10.47
2018-04-26T04:58:14.912Z,10.52
2018-04-26T05:00:42.923Z,10.59
2018-04-26T05:03:10.756Z,10.66
2018-04-26T05:05:38.831Z,10.74
2018-04-26T05:08:07.426Z,10.82
2018-04-26T05:10:35.489Z,10.91
2018-04-26T05:13:03.566Z,10.97
2018-04-26T05:15:31.727Z,11.03
2018-04-26T05:17:59.419Z,11.09
2018-04-26T05:20:27.593Z,11.17
2018-04-26T05:22:55.504Z,11.20
2018-04-26T05:25:23.946Z,11.24
2018-04-26T05:27:51.942Z,11.24
2018-04-26T05:30:20.314Z,11.28
2018-04-26T05:32:48.090Z,11.28
2018-04-26T05:35:16.556Z,11.28
2018-04-26T05:37:44.663Z,11.28
2018-04-26T05:40:13.545Z,11.25
2018-04-26T05:42:41.508Z,11.19
2018-04-26T05:45:09.438Z,11.18
2018-04-26T05:47:37.237Z,11.22
2018-04-26T05:50:05.128Z,11.23
2018-04-26T05:52:33.228Z,11.29
2018-04-26T05:55:01.258Z,11.36
2018-04-26T05:57:29.322Z,11.40
2018-04-26T05:59:57.012Z,11.42
2018-04-26T06:02:25.195Z,11.48
2018-04-26T06:04:53.304Z,11.48
2018-04-26T06:07:22.043Z,11.48
2018-04-26T06:09:49.986Z,11.59
2018-04-26T06:12:18.205Z,11.59
2018-04-26T06:14:46.598Z,11.65
2018-04-26T06:17:14.731Z,11.71
2018-04-26T06:19:42.647Z,11.80
2018-04-26T06:22:11.560Z,11.86
2018-04-26T06:24:40.761Z,11.92
2018-04-26T06:27:08.714Z,12.02
2018-04-26T06:29:37.622Z,12.18
2018-04-26T06:32:06.415Z,12.36
2018-04-26T06:34:34.489Z,12.52
2018-04-26T06:37:02.636Z,12.65
2018-04-26T06:39:30.694Z,12.75
2018-04-26T06:41:59.128Z,12.88
2018-04-26T06:44:27.357Z,12.96
2018-04-26T06:46:55.165Z,13.06
2018-04-26T06:49:23.011Z,13.10
2018-04-26T06:51:51.721Z,13.15
2018-04-26T06:54:20.091Z,13.20
2018-04-26T06:56:48.188Z,13.20
2018-04-26T06:59:16.210Z,13.24
2018-04-26T07:01:43.994Z,13.18
2018-04-26T07:04:11.893Z,13.20
2018-04-26T07:06:39.974Z,13.20
2018-04-26T07:09:07.955Z,13.18
2018-04-26T07:11:36.387Z,13.23
2018-04-26T07:14:04.115Z,13.32
2018-04-26T07:16:31.775Z,13.35
2018-04-26T07:19:00.249Z,13.43
2018-04-26T07:21:28.148Z,13.46
2018-04-26T07:23:56.087Z,13.47
2018-04-26T07:26:24.949Z,13.48
2018-04-26T07:28:53.521Z,13.46
2018-04-26T07:31:21.651Z,13.52
2018-04-26T07:34:01.752Z,13.53
2018-04-26T12:51:31.521Z,20.93
2018-04-26T12:54:00.121Z,19.29
2018-04-26T12:56:28.282Z,17.99
2018-04-26T12:58:57.468Z,16.93
2018-04-26T13:01:26.061Z,16.21
2018-04-26T13:03:54.806Z,15.46
2018-04-26T13:06:23.438Z,14.37
2018-04-26T13:08:52.222Z,13.55
2018-04-26T13:11:21.569Z,13.59
2018-04-26T13:13:50.565Z,14.88
2018-04-26T13:16:19.165Z,15.90
2018-04-26T13:18:47.508Z,16.82
2018-04-26T13:21:15.782Z,16.99
2018-04-26T13:23:43.991Z,16.90
2018-04-26T13:26:12.149Z,16.92
2018-04-26T13:28:40.471Z,17.12
2018-04-26T13:31:08.701Z,17.27
2018-04-26T13:33:36.920Z,16.68
2018-04-26T13:36:05.491Z,16.93
2018-04-26T13:38:33.642Z,17.35
2018-04-26T13:41:01.604Z,17.74
2018-04-26T13:43:29.585Z,17.81
2018-04-26T13:45:57.665Z,18.07
2018-04-26T13:48:25.898Z,18.54
2018-04-26T13:50:54.323Z,18.90
2018-04-26T13:53:22.919Z,19.62
2018-04-26T13:55:51.428Z,18.87
2018-04-26T13:58:20.037Z,18.80
2018-04-26T14:00:48.647Z,18.25
2018-04-26T14:03:17.064Z,17.32
2018-04-26T14:05:45.348Z,16.70
2018-04-26T14:08:13.833Z,16.09
2018-04-26T14:10:42.533Z,15.63
2018-04-26T14:13:10.685Z,15.21
2018-04-26T14:15:38.863Z,14.91
2018-04-26T14:18:07.056Z,14.66
2018-04-26T14:20:35.237Z,14.26
2018-04-26T14:23:03.714Z,13.88
2018-04-26T14:25:32.016Z,13.48
2018-04-26T14:28:00.185Z,13.22
2018-04-26T14:30:28.190Z,13.03
2018-04-26T14:32:56.538Z,13.01
2018-04-26T14:35:25.608Z,12.95
2018-04-26T14:37:54.434Z,13.18
2018-04-26T14:40:23.013Z,14.21
2018-04-26T14:42:51.226Z,15.05
2018-04-26T14:45:19.225Z,14.81
2018-04-26T14:47:48.225Z,14.48
2018-04-26T14:50:17.159Z,14.27
2018-04-26T14:52:45.175Z,14.62
2018-04-26T14:55:13.879Z,15.62
2018-04-26T14:57:42.559Z,16.38
2018-04-26T15:00:11.398Z,17.06
2018-04-26T15:02:41.799Z,17.35
2018-04-26T15:05:10.592Z,17.37
2018-04-26T15:07:39.792Z,17.73
2018-04-26T15:10:08.083Z,18.02
2018-04-26T15:12:36.032Z,18.28
2018-04-26T15:15:04.303Z,18.19
2018-04-26T15:17:32.556Z,18.39
2018-04-26T15:20:01.026Z,18.32
2018-04-26T15:22:29.834Z,18.31
2018-04-26T15:24:58.918Z,18.14
2018-04-26T15:27:26.963Z,18.07
2018-04-26T15:29:55.501Z,17.77
2018-04-26T15:32:23.862Z,17.28
2018-04-26T15:34:53.027Z,16.89
2018-04-26T15:37:21.851Z,16.38
2018-04-26T15:39:50.195Z,15.85
2018-04-26T15:42:18.752Z,15.37
2018-04-26T15:44:46.764Z,14.98
2018-04-26T15:47:15.341Z,14.69
2018-04-26T15:49:43.753Z,14.52
2018-04-26T15:52:12.572Z,14.36
2018-04-26T15:58:05.630Z,14.08
2018-04-26T16:00:53.231Z,13.98
2018-04-26T16:03:34.015Z,13.92
2018-04-26T16:09:14.907Z,14.29
2018-04-26T16:11:55.533Z,14.89
2018-04-26T16:14:36.606Z,15.05
2018-04-26T16:17:32.717Z,15.73
2018-04-26T16:20:18.287Z,16.28
2018-04-26T16:26:15.567Z,16.46
2018-04-26T16:32:16.378Z,16.52
2018-04-26T16:34:56.822Z,16.43
2018-04-26T16:37:43.323Z,16.42
2018-04-26T16:40:11.953Z,16.30
2018-04-26T16:42:40.498Z,16.45
2018-04-26T16:45:09.297Z,16.58
2018-04-26T16:47:38.080Z,16.37
2018-04-26T16:50:06.583Z,16.31
2018-04-26T16:52:35.080Z,16.05
2018-04-26T16:55:03.680Z,15.69
2018-04-26T16:57:32.229Z,15.55
2018-04-26T17:00:00.424Z,15.17
2018-04-26T17:02:28.878Z,14.56
2018-04-26T17:04:57.582Z,13.96
2018-04-26T17:07:25.962Z,13.52
2018-04-26T17:09:54.356Z,13.19
2018-04-26T17:12:23.219Z,12.98
2018-04-26T17:14:52.023Z,12.82
2018-04-26T17:17:21.802Z,12.69
2018-04-26T17:19:50.265Z,12.55
2018-04-26T17:22:18.868Z,12.61
2018-04-26T17:24:47.505Z,12.81
2018-04-26T17:27:16.301Z,12.98
2018-04-26T17:29:44.889Z,13.12
2018-04-26T17:32:13.300Z,13.17
2018-04-26T17:34:41.834Z,13.04
2018-04-26T17:37:10.479Z,12.87
2018-04-26T17:39:39.244Z,12.75
2018-04-26T17:42:07.935Z,12.65
2018-04-26T17:44:36.225Z,12.54
2018-04-26T17:47:04.833Z,12.44
2018-04-26T17:49:33.366Z,12.32
2018-04-26T17:52:02.274Z,12.18
2018-04-26T17:54:30.766Z,12.05
2018-04-26T17:56:59.265Z,11.92
2018-04-26T17:59:27.955Z,11.79
2018-04-26T18:01:56.799Z,11.66
2018-04-26T18:04:25.421Z,11.54
2018-04-26T18:06:54.219Z,11.41
2018-04-26T18:09:23.004Z,11.28
2018-04-26T18:11:51.790Z,-144.16
2018-04-26T18:14:20.333Z,-144.16
2018-04-26T18:16:49.163Z,-144.16
2018-04-26T18:19:17.696Z,-144.16
2018-04-26T18:21:46.515Z,-144.16
2018-04-26T18:24:15.385Z,-144.16
2018-04-26T18:26:44.136Z,-144.16
2018-04-26T18:29:13.178Z,-144.16
2018-04-26T18:31:42.407Z,-144.16
2018-04-26T18:34:11.068Z,-144.16
2018-04-26T18:36:39.624Z,-144.16
2018-04-26T18:39:08.607Z,-144.16
2018-04-26T18:41:37.408Z,-144.16
2018-04-26T18:44:06.418Z,-144.16
2018-04-26T18:46:34.583Z,-144.16
2018-04-26T18:49:03.207Z,-144.16
2018-04-26T18:51:31.839Z,-144.16
2018-04-26T18:54:00.445Z,-144.16
2018-04-26T18:56:28.798Z,-144.16
2018-04-26T18:58:57.345Z,-144.16
2018-04-26T19:01:26.949Z,-144.16
2018-04-26T19:03:55.410Z,-144.16
2018-04-26T19:08:22.993Z,10.77
2018-04-26T19:10:51.535Z,10.78
2018-04-26T19:13:20.533Z,10.82
2018-04-26T19:15:49.210Z,10.88
2018-04-26T19:18:17.988Z,10.92
2018-04-26T19:20:46.412Z,10.90
2018-04-26T19:23:14.865Z,10.83
2018-04-26T19:25:43.688Z,10.69
2018-04-26T19:28:12.387Z,10.45
2018-04-26T19:30:41.135Z,10.14
2018-04-26T19:33:09.604Z,9.83
2018-04-26T19:35:38.231Z,9.60
2018-04-26T19:38:07.099Z,9.47
2018-04-26T19:40:35.905Z,9.41
2018-04-26T19:43:04.703Z,9.32
2018-04-26T19:45:33.584Z,9.25
2018-04-26T19:48:02.145Z,9.30
2018-04-26T19:50:30.847Z,9.29
2018-04-26T19:52:59.488Z,9.28
2018-04-26T19:55:28.136Z,9.28
2018-04-26T19:57:56.549Z,9.28
2018-04-26T20:00:25.378Z,9.27
2018-04-26T20:02:54.081Z,9.33
2018-04-26T20:05:23.169Z,9.34
2018-04-26T20:07:51.965Z,9.33
2018-04-26T20:10:20.424Z,9.33
2018-04-26T20:12:48.911Z,9.36
2018-04-26T20:15:17.251Z,9.35
2018-04-26T20:17:46.147Z,9.35
2018-04-26T20:20:14.905Z,9.37
2018-04-26T20:22:43.705Z,9.39
2018-04-26T20:25:12.146Z,9.37
2018-04-26T20:27:40.487Z,9.35
2018-04-26T20:30:09.498Z,9.28
2018-04-26T20:32:38.750Z,9.24
2018-04-26T20:35:07.402Z,9.16
2018-04-26T20:37:44.203Z,9.08
2018-04-26T20:40:16.912Z,9.01
2018-04-26T20:42:45.243Z,8.91
2018-04-26T20:45:13.723Z,8.85
2018-04-26T20:47:42.075Z,8.78
2018-04-26T20:50:11.063Z,8.70
2018-04-26T20:52:39.852Z,8.59
2018-04-26T20:55:08.745Z,8.49
2018-04-26T20:57:37.056Z,8.44
2018-04-26T21:00:05.856Z,8.43
2018-04-26T21:02:34.337Z,8.38
2018-04-26T21:05:03.132Z,8.37
2018-04-26T21:07:31.791Z,8.33
2018-04-26T21:10:00.681Z,8.24
2018-04-26T21:12:28.961Z,8.16
2018-04-26T21:14:57.270Z,8.13
2018-04-26T21:17:25.931Z,8.14
2018-04-26T21:19:53.922Z,8.13
2018-04-26T21:22:22.386Z,8.09
2018-04-26T21:24:51.287Z,8.08
2018-04-26T21:27:19.777Z,8.03
2018-04-26T21:29:47.977Z,7.95
2018-04-26T21:32:16.126Z,7.94
2018-04-26T21:34:44.237Z,7.98
2018-04-26T21:37:12.687Z,8.02
2018-04-26T21:39:40.672Z,8.08
2018-04-26T21:42:08.846Z,8.19
2018-04-26T21:44:37.118Z,8.28
2018-04-26T21:47:05.292Z,8.22
2018-04-26T21:49:32.980Z,8.31
2018-04-26T21:52:06.616Z,8.44
2018-04-26T21:54:40.387Z,8.55
2018-04-26T21:57:14.585Z,8.56
2018-04-26T21:59:48.251Z,8.58
2018-04-26T22:02:22.285Z,8.52
2018-04-26T22:04:56.094Z,8.40
2018-04-26T22:07:24.599Z,8.29
2018-04-26T22:09:52.703Z,8.18
2018-04-26T22:12:20.853Z,8.07
2018-04-26T22:14:48.759Z,7.99
2018-04-26T22:17:17.061Z,7.92
2018-04-26T22:19:45.093Z,7.87
2018-04-26T22:22:13.214Z,7.83
2018-04-26T22:24:41.124Z,7.78
2018-04-26T22:27:09.269Z,7.74
2018-04-26T22:29:37.279Z,7.71
2018-04-26T22:32:05.527Z,7.60
2018-04-26T22:34:32.768Z,7.61
